Time;durP1;ratioP1;P1;durP2;ratioP2;P2;SDS_P1;SDS_P2;PMS_P1;PMS_P2;Temp;Humidity;BMP_temperature;BMP_pressure;BME280_temperature;BME280_humidity;BME280_pressure;Samples;Min_cycle;Max_cycle;Signal;HPM_P1;HPM_P2
2022/12/09 00:01:28;;;;;;;53.97;32.97;;;3.80;99.90;;;;;;5010781;28;20398;-80
2022/12/09 00:03:55;;;;;;;61.53;35.88;;;3.70;99.90;;;;;;5023430;28;20488;-79
2022/12/09 00:06:24;;;;;;;53.97;34.38;;;3.80;99.90;;;;;;5024184;28;20038;-80
2022/12/09 00:08:51;;;;;;;55.63;34.00;;;3.70;99.90;;;;;;5032001;28;20359;-79
2022/12/09 00:11:18;;;;;;;52.25;31.25;;;3.80;99.90;;;;;;5012773;28;20044;-80
2022/12/09 00:13:53;;;;;;;46.92;28.23;;;3.70;99.90;;;;;;5053291;28;20208;-79
2022/12/09 00:16:21;;;;;;;48.50;29.02;;;3.70;99.90;;;;;;5030237;28;20064;-80
2022/12/09 00:18:48;;;;;;;47.50;29.48;;;3.70;99.90;;;;;;5026104;28;20061;-79
2022/12/09 00:21:23;;;;;;;43.83;28.90;;;3.70;99.90;;;;;;5027516;28;20037;-80
2022/12/09 00:23:51;;;;;;;45.20;26.52;;;3.70;99.90;;;;;;4996137;28;20030;-79
2022/12/09 00:26:19;;;;;;;48.40;28.95;;;3.80;99.90;;;;;;5010992;28;20037;-79
2022/12/09 00:28:46;;;;;;;40.13;25.85;;;3.70;99.90;;;;;;5023642;28;20428;-80
2022/12/09 00:31:23;;;;;;;39.83;24.83;;;3.70;99.90;;;;;;5030448;28;20447;-79
2022/12/09 00:33:51;;;;;;;38.88;25.00;;;3.70;99.90;;;;;;5028289;28;20026;-80
2022/12/09 00:36:21;;;;;;;43.15;26.50;;;3.60;99.90;;;;;;5023426;28;20522;-80
2022/12/09 00:38:49;;;;;;;58.50;33.13;;;3.60;99.90;;;;;;5027414;28;20053;-79
2022/12/09 00:41:16;;;;;;;53.60;33.28;;;3.60;99.90;;;;;;5026031;28;20037;-80
2022/12/09 00:43:44;;;;;;;55.47;33.60;;;3.60;99.90;;;;;;5020669;28;20040;-79
2022/12/09 00:46:12;;;;;;;60.10;37.45;;;3.50;99.90;;;;;;5029590;28;20384;-79
2022/12/09 00:48:39;;;;;;;52.78;32.80;;;3.50;99.90;;;;;;5042025;28;20041;-79
2022/12/09 00:51:08;;;;;;;51.67;31.45;;;3.50;99.90;;;;;;5017606;28;20033;-80
2022/12/09 00:53:34;;;;;;;60.03;37.88;;;3.50;99.90;;;;;;5025653;28;20041;-78
2022/12/09 00:56:00;;;;;;;62.95;40.60;;;3.50;99.90;;;;;;5025250;28;20041;-79
2022/12/09 00:58:27;;;;;;;52.60;34.58;;;3.50;99.90;;;;;;5020305;28;20045;-79
2022/12/09 01:00:53;;;;;;;45.58;28.63;;;3.40;99.90;;;;;;5025903;28;20040;-79
2022/12/09 01:03:20;;;;;;;47.35;29.73;;;3.40;99.90;;;;;;5024886;28;20428;-79
2022/12/09 01:05:46;;;;;;;42.35;26.60;;;3.40;99.90;;;;;;5029390;28;20033;-81
2022/12/09 01:08:14;;;;;;;41.00;26.83;;;3.30;99.90;;;;;;5026839;28;20431;-80
2022/12/09 01:10:42;;;;;;;42.63;27.03;;;3.30;99.90;;;;;;5021018;28;20435;-80
2022/12/09 01:13:10;;;;;;;55.13;31.75;;;3.30;99.90;;;;;;5031520;28;20503;-80
2022/12/09 01:15:37;;;;;;;47.88;30.10;;;3.30;99.90;;;;;;5036683;28;20033;-80
2022/12/09 01:18:05;;;;;;;48.20;28.98;;;3.30;99.90;;;;;;5036308;28;20072;-81
2022/12/09 01:20:33;;;;;;;47.60;29.30;;;3.30;99.90;;;;;;5024603;28;20041;-80
2022/12/09 01:23:00;;;;;;;44.95;27.52;;;3.40;99.90;;;;;;5028192;28;20421;-79
2022/12/09 01:25:26;;;;;;;44.65;27.58;;;3.40;99.90;;;;;;5018195;28;20487;-80
2022/12/09 01:27:53;;;;;;;43.70;27.60;;;3.40;99.90;;;;;;5031191;28;20605;-80
2022/12/09 01:30:19;;;;;;;42.28;26.35;;;3.40;99.90;;;;;;5030850;28;20523;-80
2022/12/09 01:32:46;;;;;;;44.90;27.30;;;3.40;99.90;;;;;;5037611;28;20044;-79
2022/12/09 01:35:13;;;;;;;46.00;28.20;;;3.40;99.90;;;;;;5029381;28;20506;-80
2022/12/09 01:37:39;;;;;;;47.83;29.73;;;3.50;99.90;;;;;;5035359;28;20041;-81
2022/12/09 01:40:11;;;;;;;43.20;25.60;;;3.40;99.90;;;;;;5026699;28;20495;-81
2022/12/09 01:42:37;;;;;;;48.45;29.67;;;3.50;99.90;;;;;;5021658;28;20026;-81
2022/12/09 01:45:19;;;;;;;47.15;28.95;;;3.50;99.90;;;;;;5034698;28;20040;-81
2022/12/09 01:47:59;;;;;;;51.47;30.98;;;3.50;99.90;;;;;;5023229;28;20044;-80
2022/12/09 01:50:26;;;;;;;48.40;30.65;;;3.50;99.90;;;;;;5032653;28;20041;-80
2022/12/09 01:52:55;;;;;;;49.90;30.30;;;3.40;99.90;;;;;;5014263;28;20054;-81
2022/12/09 01:55:23;;;;;;;38.70;24.58;;;3.40;99.90;;;;;;5034753;28;20044;-82
2022/12/09 01:57:49;;;;;;;50.25;29.83;;;3.40;99.90;;;;;;5043618;28;20045;-81
2022/12/09 02:00:16;;;;;;;44.75;27.75;;;3.30;99.90;;;;;;5024385;28;20037;-81
2022/12/09 02:02:45;;;;;;;46.28;28.08;;;3.30;99.90;;;;;;5035101;28;20041;-81
2022/12/09 02:05:14;;;;;;;48.88;31.08;;;3.20;99.90;;;;;;5029496;28;20449;-81
2022/12/09 02:07:44;;;;;;;46.10;29.27;;;3.20;99.90;;;;;;5005111;28;20037;-81
2022/12/09 02:10:14;;;;;;;45.77;27.27;;;3.20;99.90;;;;;;5027226;28;20045;-81
2022/12/09 02:12:58;;;;;;;46.33;27.60;;;3.20;99.90;;;;;;5049852;28;20384;-81
2022/12/09 02:15:32;;;;;;;49.42;28.50;;;3.10;99.90;;;;;;5026301;28;20372;-81
2022/12/09 02:18:23;;;;;;;44.67;27.88;;;3.10;99.90;;;;;;5032459;28;20375;-81
2022/12/09 02:21:21;;;;;;;42.65;25.50;;;3.10;99.90;;;;;;5025806;28;20696;-81
2022/12/09 02:24:13;;;;;;;39.95;23.88;;;3.10;99.90;;;;;;5027191;28;20848;-81
2022/12/09 02:26:49;;;;;;;50.17;29.40;;;3.00;99.90;;;;;;5027265;28;20053;-80
2022/12/09 02:30:05;;;;;;;47.08;27.55;;;3.00;99.90;;;;;;5029931;28;20041;-81
2022/12/09 02:32:48;;;;;;;49.58;27.30;;;2.90;99.90;;;;;;5029044;28;20037;-81
2022/12/09 02:35:21;;;;;;;47.30;28.20;;;2.90;99.90;;;;;;5020168;28;20040;-81
2022/12/09 02:37:53;;;;;;;40.40;23.93;;;2.80;99.90;;;;;;5013152;28;20514;-81
2022/12/09 02:40:26;;;;;;;40.00;24.63;;;2.70;99.90;;;;;;5034678;28;20045;-81
2022/12/09 02:42:55;;;;;;;39.92;23.98;;;2.70;99.90;;;;;;5024457;28;20036;-81
2022/12/09 02:45:23;;;;;;;42.95;25.55;;;2.60;99.90;;;;;;5022958;28;20033;-81
2022/12/09 02:47:54;;;;;;;43.63;24.33;;;2.60;99.90;;;;;;5033183;28;20499;-81
2022/12/09 02:50:26;;;;;;;41.10;24.10;;;2.50;99.90;;;;;;5047585;28;20468;-81
2022/12/09 02:52:55;;;;;;;45.67;25.35;;;2.50;99.90;;;;;;5025276;28;20052;-81
2022/12/09 02:55:22;;;;;;;48.05;25.65;;;2.50;99.90;;;;;;5033154;28;20041;-81
2022/12/09 02:57:55;;;;;;;53.73;29.73;;;2.50;99.90;;;;;;5021562;28;20043;-81
2022/12/09 03:00:22;;;;;;;49.60;27.90;;;2.50;99.90;;;;;;5029583;28;20045;-81
2022/12/09 03:02:53;;;;;;;45.70;25.93;;;2.60;99.90;;;;;;5008632;28;20506;-81
2022/12/09 03:05:35;;;;;;;55.15;28.98;;;2.60;99.90;;;;;;5043540;28;20483;-80
2022/12/09 03:08:46;;;;;;;47.08;25.63;;;2.60;99.90;;;;;;5018381;28;20036;-81
2022/12/09 03:11:21;;;;;;;60.35;31.33;;;2.60;99.90;;;;;;5029201;28;20068;-81
2022/12/09 03:14:06;;;;;;;60.88;31.90;;;2.60;99.90;;;;;;5025660;28;20025;-81
2022/12/09 03:16:40;;;;;;;52.60;29.58;;;2.60;99.90;;;;;;5032583;28;20048;-80
2022/12/09 03:19:25;;;;;;;53.58;30.02;;;2.60;99.90;;;;;;5016591;28;20041;-81
2022/12/09 03:21:56;;;;;;;47.10;26.93;;;2.60;99.90;;;;;;5041124;28;20040;-81
2022/12/09 03:24:28;;;;;;;53.13;29.65;;;2.60;99.90;;;;;;5027486;28;20186;-80
2022/12/09 03:26:56;;;;;;;;;;;2.60;99.90;;;;;;5036019;28;20036;-81
2022/12/09 03:29:25;;;;;;;45.77;25.60;;;2.60;99.90;;;;;;5009494;28;19916;-80
2022/12/09 03:31:55;;;;;;;52.93;29.03;;;2.60;99.90;;;;;;5049735;28;20033;-80
2022/12/09 03:34:27;;;;;;;45.63;25.25;;;2.60;99.90;;;;;;5013648;28;20033;-80
2022/12/09 03:36:53;;;;;;;47.90;27.13;;;2.60;99.90;;;;;;5026558;28;20523;-80
2022/12/09 03:39:24;;;;;;;50.90;28.13;;;2.60;99.90;;;;;;5021873;28;20563;-80
2022/12/09 03:41:55;;;;;;;48.63;26.83;;;2.60;99.90;;;;;;5028796;28;20029;-81
2022/12/09 03:44:34;;;;;;;48.00;27.15;;;2.60;99.90;;;;;;5035177;28;20029;-81
2022/12/09 03:47:04;;;;;;;42.53;24.52;;;2.60;99.90;;;;;;5043100;28;20136;-81
2022/12/09 03:49:30;;;;;;;44.47;24.17;;;2.60;99.90;;;;;;5016636;28;20037;-81
2022/12/09 03:52:12;;;;;;;45.80;26.47;;;2.60;99.90;;;;;;5026444;28;20448;-80
2022/12/09 03:54:44;;;;;;;46.60;25.67;;;2.50;99.90;;;;;;5028415;28;20038;-81
2022/12/09 03:57:18;;;;;;;44.33;24.37;;;2.50;99.90;;;;;;5032640;28;20045;-80
2022/12/09 03:59:54;;;;;;;41.20;24.53;;;2.40;99.90;;;;;;5055260;28;20052;-81
2022/12/09 04:02:21;;;;;;;41.30;22.60;;;2.40;99.90;;;;;;5030790;28;20041;-80
2022/12/09 04:04:48;;;;;;;39.50;23.20;;;2.40;99.90;;;;;;5046753;28;20510;-81
2022/12/09 04:07:14;;;;;;;50.08;29.70;;;2.30;99.90;;;;;;5017909;28;20049;-81
2022/12/09 04:09:40;;;;;;;45.27;25.63;;;2.20;99.90;;;;;;5026381;28;20045;-81
2022/12/09 04:12:07;;;;;;;52.77;27.90;;;2.20;99.90;;;;;;5027891;28;20052;-81
2022/12/09 04:14:33;;;;;;;37.97;21.48;;;2.10;99.90;;;;;;5028137;28;20530;-81
2022/12/09 04:17:00;;;;;;;44.23;26.73;;;2.00;99.90;;;;;;5043625;28;20057;-81
2022/12/09 04:19:26;;;;;;;41.07;24.30;;;2.00;99.90;;;;;;5036533;28;20048;-81
2022/12/09 04:21:52;;;;;;;35.70;20.87;;;2.00;99.90;;;;;;5027780;28;20057;-80
2022/12/09 04:24:19;;;;;;;36.47;21.60;;;2.00;99.90;;;;;;5030130;28;20375;-80
2022/12/09 04:26:45;;;;;;;35.73;21.50;;;1.90;99.90;;;;;;5037534;28;20044;-80
2022/12/09 04:29:12;;;;;;;34.80;19.97;;;1.90;99.90;;;;;;5026731;28;20045;-81
2022/12/09 04:31:39;;;;;;;32.60;18.80;;;1.80;99.90;;;;;;5029137;28;20034;-81
2022/12/09 04:34:05;;;;;;;31.93;18.30;;;1.70;99.90;;;;;;5044586;28;20075;-80
2022/12/09 04:36:31;;;;;;;33.77;19.67;;;1.70;99.90;;;;;;5023020;28;20496;-81
2022/12/09 04:38:58;;;;;;;38.70;21.00;;;1.70;99.90;;;;;;5022185;28;20056;-80
2022/12/09 04:41:24;;;;;;;36.50;21.23;;;1.70;99.90;;;;;;5027455;28;20483;-80
2022/12/09 04:43:51;;;;;;;35.47;21.17;;;1.70;99.90;;;;;;5034175;28;20364;-80
2022/12/09 04:46:17;;;;;;;41.90;23.80;;;1.70;99.90;;;;;;5025462;28;20407;-80
2022/12/09 04:48:44;;;;;;;36.00;21.33;;;1.70;99.90;;;;;;5024127;28;20041;-80
2022/12/09 04:51:13;;;;;;;38.47;20.80;;;1.80;99.90;;;;;;5027025;28;20394;-80
2022/12/09 04:53:39;;;;;;;41.17;21.73;;;1.80;99.90;;;;;;5025023;28;20049;-80
2022/12/09 04:56:13;;;;;;;47.23;26.60;;;1.80;99.90;;;;;;5042628;28;21322;-80
2022/12/09 04:58:40;;;;;;;40.87;22.80;;;1.90;99.90;;;;;;5027171;28;20387;-80
2022/12/09 05:01:11;;;;;;;38.97;21.27;;;1.90;99.90;;;;;;5032356;28;20037;-80
2022/12/09 05:03:38;;;;;;;37.67;21.20;;;1.90;99.90;;;;;;5044218;28;20037;-80
2022/12/09 05:06:06;;;;;;;44.67;25.43;;;1.90;99.90;;;;;;5026843;28;20037;-79
2022/12/09 05:08:33;;;;;;;41.00;23.07;;;1.90;99.90;;;;;;5031534;28;20041;-80
2022/12/09 05:11:00;;;;;;;32.93;19.40;;;1.90;99.90;;;;;;5028149;28;20036;-80
2022/12/09 05:13:26;;;;;;;51.80;26.20;;;1.80;99.90;;;;;;5030291;28;20044;-80
2022/12/09 05:15:57;;;;;;;44.53;23.47;;;1.90;99.90;;;;;;5010131;28;20401;-80
2022/12/09 05:18:24;;;;;;;40.00;22.53;;;1.90;99.90;;;;;;5020034;28;20064;-79
2022/12/09 05:20:50;;;;;;;39.90;22.43;;;1.90;99.90;;;;;;5010725;28;20641;-80
2022/12/09 05:23:16;;;;;;;34.63;19.27;;;1.90;99.90;;;;;;5027753;28;20034;-80
2022/12/09 05:25:43;;;;;;;37.97;21.43;;;2.00;99.90;;;;;;5023676;28;20034;-80
2022/12/09 05:28:09;;;;;;;43.43;21.50;;;2.10;99.90;;;;;;5027882;28;20487;-80
2022/12/09 05:30:36;;;;;;;37.53;20.53;;;2.10;99.90;;;;;;5026759;28;20038;-80
2022/12/09 05:33:03;;;;;;;36.47;20.27;;;2.10;99.90;;;;;;5025778;28;20052;-81
2022/12/09 05:35:29;;;;;;;32.73;19.43;;;2.10;99.90;;;;;;5027240;28;20053;-80
2022/12/09 05:37:56;;;;;;;33.07;19.97;;;2.10;99.90;;;;;;5036393;28;20042;-81
2022/12/09 05:40:22;;;;;;;31.83;17.87;;;2.10;99.90;;;;;;5020534;28;20045;-81
2022/12/09 05:42:49;;;;;;;31.27;18.10;;;2.10;99.90;;;;;;5045795;28;20033;-81
2022/12/09 05:45:15;;;;;;;34.97;19.00;;;2.10;99.90;;;;;;5044233;28;20034;-80
2022/12/09 05:47:42;;;;;;;30.87;17.10;;;2.10;99.90;;;;;;5002224;28;20068;-81
2022/12/09 05:50:08;;;;;;;31.17;18.17;;;2.10;99.90;;;;;;5015706;28;20483;-80
2022/12/09 05:52:36;;;;;;;36.80;20.73;;;2.10;99.90;;;;;;5029516;28;20041;-80
2022/12/09 05:55:06;;;;;;;33.03;18.77;;;2.10;99.90;;;;;;5027180;28;20038;-80
2022/12/09 05:57:33;;;;;;;31.23;18.97;;;2.10;99.90;;;;;;5025530;28;20052;-80
2022/12/09 06:00:00;;;;;;;32.30;19.53;;;2.10;99.90;;;;;;5023792;28;20041;-80
2022/12/09 06:02:26;;;;;;;29.53;17.80;;;2.10;99.90;;;;;;5042562;28;20029;-79
2022/12/09 06:04:54;;;;;;;27.33;16.10;;;2.00;99.90;;;;;;5050051;28;20033;-80
2022/12/09 06:07:20;;;;;;;33.53;18.77;;;2.00;99.90;;;;;;5018539;28;20510;-80
2022/12/09 06:09:46;;;;;;;33.53;17.73;;;2.00;99.90;;;;;;5039629;28;20060;-79
2022/12/09 06:12:13;;;;;;;26.20;14.77;;;1.90;99.90;;;;;;5027944;28;20373;-80
2022/12/09 06:14:39;;;;;;;28.33;17.00;;;1.80;99.90;;;;;;5027547;28;20033;-80
2022/12/09 06:17:06;;;;;;;26.47;16.07;;;1.70;99.90;;;;;;5015157;28;20056;-78
2022/12/09 06:19:32;;;;;;;26.07;14.30;;;1.60;99.90;;;;;;5034003;28;20045;-78
2022/12/09 06:21:58;;;;;;;27.10;15.77;;;1.60;99.90;;;;;;5035417;28;20029;-79
2022/12/09 06:24:25;;;;;;;28.93;16.60;;;1.50;99.90;;;;;;5050783;28;20123;-79
2022/12/09 06:26:55;;;;;;;32.60;17.40;;;1.50;99.90;;;;;;5036911;28;20044;-78
2022/12/09 06:29:21;;;;;;;29.97;16.23;;;1.60;99.90;;;;;;5032970;28;20523;-78
2022/12/09 06:31:47;;;;;;;27.67;16.00;;;1.60;99.90;;;;;;5035848;28;20044;-78
2022/12/09 06:34:14;;;;;;;31.10;16.93;;;1.50;99.90;;;;;;5042837;28;20401;-79
2022/12/09 06:36:40;;;;;;;25.57;15.93;;;1.50;99.90;;;;;;5008785;28;20037;-80
2022/12/09 06:39:06;;;;;;;24.67;14.73;;;1.40;99.90;;;;;;5023130;28;20049;-79
2022/12/09 06:41:33;;;;;;;28.60;15.67;;;1.30;99.90;;;;;;5025151;28;20049;-80
2022/12/09 06:44:00;;;;;;;26.90;15.97;;;1.30;99.90;;;;;;5023911;28;20025;-79
2022/12/09 06:46:27;;;;;;;24.90;14.07;;;1.20;99.90;;;;;;5023417;28;20049;-80
2022/12/09 06:48:54;;;;;;;24.13;14.03;;;1.10;99.90;;;;;;5019773;28;20037;-79
2022/12/09 06:51:22;;;;;;;23.87;14.43;;;1.10;99.90;;;;;;5009182;28;20415;-79
2022/12/09 06:53:49;;;;;;;24.23;14.00;;;1.00;99.90;;;;;;5025202;28;20042;-79
2022/12/09 06:56:16;;;;;;;26.13;14.43;;;0.90;99.90;;;;;;5035344;28;20044;-80
2022/12/09 06:58:44;;;;;;;22.20;12.53;;;0.80;99.90;;;;;;5038173;28;20040;-80
2022/12/09 07:01:13;;;;;;;22.70;12.07;;;0.80;99.90;;;;;;5024926;28;20048;-80
2022/12/09 07:03:41;;;;;;;23.47;13.50;;;0.80;99.90;;;;;;5023687;28;20045;-80
2022/12/09 07:06:25;;;;;;;27.27;14.97;;;0.70;99.90;;;;;;5044570;28;20040;-79
2022/12/09 07:08:51;;;;;;;24.40;14.07;;;0.70;99.90;;;;;;5045887;28;20486;-80
2022/12/09 07:11:18;;;;;;;23.33;13.30;;;0.60;99.90;;;;;;5042088;28;20054;-79
2022/12/09 07:13:44;;;;;;;27.37;14.73;;;0.60;99.90;;;;;;5019050;28;20438;-79
2022/12/09 07:16:10;;;;;;;24.03;12.97;;;0.60;99.90;;;;;;5031527;28;20037;-80
2022/12/09 07:18:37;;;;;;;31.57;15.97;;;0.50;99.90;;;;;;5014694;28;20404;-79
2022/12/09 07:21:12;;;;;;;30.03;16.57;;;0.50;99.90;;;;;;5026814;28;20620;-80
2022/12/09 07:23:38;;;;;;;33.93;18.00;;;0.50;99.90;;;;;;5025939;28;20308;-79
2022/12/09 07:26:06;;;;;;;24.80;14.30;;;0.40;99.90;;;;;;5032796;28;20067;-79
2022/12/09 07:28:34;;;;;;;33.73;18.43;;;0.40;99.90;;;;;;5023495;28;20034;-79
2022/12/09 07:31:00;;;;;;;26.43;13.93;;;0.40;99.90;;;;;;5025181;28;20052;-79
2022/12/09 07:33:27;;;;;;;26.47;14.67;;;0.30;99.90;;;;;;5041457;28;20037;-79
2022/12/09 07:35:55;;;;;;;21.13;12.10;;;0.30;99.90;;;;;;5025703;28;20506;-79
2022/12/09 07:38:23;;;;;;;19.97;12.37;;;0.30;99.90;;;;;;5017225;28;20403;-79
2022/12/09 07:40:49;;;;;;;25.40;12.27;;;0.30;99.90;;;;;;5031486;28;20037;-80
2022/12/09 07:43:16;;;;;;;20.73;11.67;;;0.20;99.90;;;;;;5025074;28;20037;-80
2022/12/09 07:45:43;;;;;;;22.30;13.23;;;0.20;99.90;;;;;;5014451;28;20038;-80
2022/12/09 07:48:10;;;;;;;21.67;11.90;;;0.20;99.90;;;;;;5024120;28;20044;-79
2022/12/09 07:50:37;;;;;;;20.33;11.77;;;0.20;99.90;;;;;;5041677;28;20029;-80
2022/12/09 07:53:03;;;;;;;23.80;12.90;;;0.20;99.90;;;;;;5045283;28;20041;-79
2022/12/09 07:55:29;;;;;;;22.87;12.17;;;0.10;99.90;;;;;;5049690;28;20037;-80
2022/12/09 07:57:56;;;;;;;26.43;13.90;;;0.10;99.90;;;;;;5010038;28;20297;-80
2022/12/09 08:00:22;;;;;;;24.50;13.77;;;0.10;99.90;;;;;;5038993;28;20036;-81
2022/12/09 08:02:51;;;;;;;23.27;13.33;;;0.10;99.90;;;;;;5010193;28;20048;-81
2022/12/09 08:05:17;;;;;;;27.60;14.47;;;0.20;99.90;;;;;;5053580;28;20033;-79
2022/12/09 08:07:43;;;;;;;27.20;13.57;;;0.30;99.90;;;;;;5032676;28;20396;-81
2022/12/09 08:10:10;;;;;;;29.37;16.03;;;0.40;99.90;;;;;;5037976;28;20041;-81
2022/12/09 08:12:36;;;;;;;28.37;14.93;;;0.40;99.90;;;;;;5034586;28;20038;-81
2022/12/09 08:15:03;;;;;;;33.10;17.13;;;0.50;99.90;;;;;;5037535;28;20025;-81
2022/12/09 08:17:31;;;;;;;31.50;16.43;;;0.60;99.90;;;;;;5023693;28;20508;-81
2022/12/09 08:19:58;;;;;;;30.30;16.17;;;0.60;99.90;;;;;;5005849;28;20041;-81
2022/12/09 08:22:24;;;;;;;30.33;16.27;;;0.70;99.90;;;;;;5032325;28;20032;-81
2022/12/09 08:24:50;;;;;;;30.77;17.40;;;0.80;99.90;;;;;;5047361;28;20025;-80
2022/12/09 08:27:16;;;;;;;36.17;18.60;;;0.90;99.90;;;;;;5025929;28;20049;-81
2022/12/09 08:29:43;;;;;;;38.27;20.07;;;1.00;99.90;;;;;;5028029;28;20500;-80
2022/12/09 08:32:09;;;;;;;47.13;23.93;;;1.10;99.90;;;;;;5011219;28;20479;-81
2022/12/09 08:34:36;;;;;;;43.27;21.43;;;1.20;99.90;;;;;;5028823;28;20033;-81
2022/12/09 08:37:02;;;;;;;40.73;19.23;;;1.30;99.90;;;;;;5017514;28;20071;-81
2022/12/09 08:39:28;;;;;;;42.63;19.73;;;1.40;99.90;;;;;;4994552;28;20403;-81
2022/12/09 08:41:55;;;;;;;45.70;22.07;;;1.50;99.90;;;;;;5019026;28;20503;-81
2022/12/09 08:44:22;;;;;;;39.13;19.43;;;1.50;99.90;;;;;;5042629;28;20502;-81
2022/12/09 08:46:50;;;;;;;40.33;20.00;;;1.60;99.90;;;;;;5017366;28;20037;-81
2022/12/09 08:49:20;;;;;;;33.70;18.87;;;1.70;99.90;;;;;;5029994;28;20037;-81
2022/12/09 08:51:48;;;;;;;38.90;17.90;;;1.70;99.90;;;;;;5002724;28;20516;-81
2022/12/09 08:54:15;;;;;;;35.57;17.70;;;1.80;99.90;;;;;;5033286;28;20037;-81
2022/12/09 08:56:46;;;;;;;41.10;20.90;;;1.80;99.90;;;;;;5028250;28;20038;-81
2022/12/09 08:59:13;;;;;;;41.93;20.47;;;1.90;99.90;;;;;;5048110;28;20045;-81
2022/12/09 09:01:40;;;;;;;59.40;25.77;;;2.00;99.90;;;;;;5027155;28;20052;-82
2022/12/09 09:04:09;;;;;;;49.60;22.53;;;2.00;99.90;;;;;;5049105;28;20052;-82
2022/12/09 09:06:40;;;;;;;54.50;23.93;;;2.10;99.90;;;;;;5032461;28;20029;-81
2022/12/09 09:09:08;;;;;;;50.30;24.33;;;2.20;99.90;;;;;;5009830;28;20030;-80
2022/12/09 09:11:35;;;;;;;56.67;26.43;;;2.20;99.90;;;;;;5032784;28;20040;-82
2022/12/09 09:14:04;;;;;;;48.17;22.33;;;2.30;99.90;;;;;;5030520;28;20049;-81
2022/12/09 09:16:30;;;;;;;42.00;19.97;;;2.30;99.90;;;;;;5050892;28;20500;-80
2022/12/09 09:18:56;;;;;;;46.00;21.63;;;2.40;99.90;;;;;;5033254;28;20068;-81
2022/12/09 09:21:25;;;;;;;42.17;20.53;;;2.40;99.90;;;;;;5010555;28;20610;-82
2022/12/09 09:23:52;;;;;;;50.00;22.13;;;2.50;99.90;;;;;;5019683;28;20041;-80
2022/12/09 09:26:21;;;;;;;45.40;21.77;;;2.50;99.90;;;;;;5030518;28;20045;-80
2022/12/09 09:28:48;;;;;;;44.93;23.03;;;2.50;99.90;;;;;;5027130;28;20029;-82
2022/12/09 09:31:21;;;;;;;45.80;22.47;;;2.60;99.90;;;;;;5044527;28;20056;-83
2022/12/09 09:33:47;;;;;;;;;;;2.60;99.90;;;;;;5030191;28;20487;-83
2022/12/09 09:36:19;;;;;;;39.73;20.00;;;2.60;99.90;;;;;;5026241;28;19952;-83
2022/12/09 09:38:46;;;;;;;46.67;21.93;;;2.60;99.90;;;;;;5030266;28;20049;-82
2022/12/09 09:41:22;;;;;;;56.70;27.67;;;2.70;99.90;;;;;;5030254;28;20500;-83
2022/12/09 09:43:49;;;;;;;49.90;24.47;;;2.70;99.90;;;;;;5032046;28;20037;-83
2022/12/09 09:46:43;;;;;;;47.33;24.33;;;2.70;99.90;;;;;;5014288;28;20044;-82
2022/12/09 09:49:17;;;;;;;40.00;20.73;;;2.80;99.90;;;;;;4995484;28;20062;-82
2022/12/09 09:51:44;;;;;;;46.53;22.17;;;2.80;99.90;;;;;;5030441;28;20033;-81
2022/12/09 09:54:13;;;;;;;42.37;21.67;;;2.80;99.90;;;;;;5043460;28;20041;-82
2022/12/09 09:57:10;;;;;;;38.60;18.97;;;2.80;99.90;;;;;;5028218;28;20052;-82
2022/12/09 09:59:52;;;;;;;34.30;17.63;;;2.70;99.90;;;;;;5041610;28;20423;-82
2022/12/09 10:02:43;;;;;;;33.30;16.77;;;2.70;99.90;;;;;;5016294;28;20034;-81
2022/12/09 10:06:00;;;;;;;35.03;18.63;;;2.80;99.90;;;;;;5031016;28;20419;-81
2022/12/09 10:08:33;;;;;;;34.37;17.87;;;2.80;99.90;;;;;;5013331;28;20053;-82
2022/12/09 10:11:24;;;;;;;41.40;21.23;;;2.80;99.90;;;;;;5033073;28;20068;-81
2022/12/09 10:13:56;;;;;;;46.17;23.30;;;2.90;99.90;;;;;;5020805;28;20558;-82
2022/12/09 10:16:31;;;;;;;44.87;21.87;;;3.00;99.90;;;;;;5009364;28;20045;-82
2022/12/09 10:19:23;;;;;;;47.60;25.20;;;3.00;99.90;;;;;;5025529;28;20306;-83
2022/12/09 10:21:51;;;;;;;42.83;23.65;;;3.10;99.90;;;;;;5026747;28;20443;-81
2022/12/09 10:24:20;;;;;;;37.00;19.77;;;3.10;99.90;;;;;;5006498;28;20396;-82
2022/12/09 10:27:04;;;;;;;36.43;20.23;;;3.20;99.90;;;;;;5010301;28;20037;-82
2022/12/09 10:29:42;;;;;;;42.53;23.03;;;3.20;99.90;;;;;;5039339;28;20403;-82
2022/12/09 10:32:15;;;;;;;42.03;23.00;;;3.30;99.90;;;;;;5021252;28;20045;-82
2022/12/09 10:34:42;;;;;;;43.90;22.47;;;3.40;99.90;;;;;;5010991;28;20025;-82
2022/12/09 10:37:27;;;;;;;43.73;22.83;;;3.40;99.90;;;;;;5041682;28;20056;-82
2022/12/09 10:40:16;;;;;;;37.30;21.93;;;3.50;99.90;;;;;;5027925;28;20048;-81
2022/12/09 10:45:33;;;;;;;37.75;20.95;;;3.50;99.90;;;;;;5025876;28;20049;-82
2022/12/09 10:47:59;;;;;;;36.13;19.73;;;3.50;99.90;;;;;;5027377;28;20049;-81
2022/12/09 10:50:31;;;;;;;39.33;22.90;;;3.50;99.90;;;;;;5030151;28;20404;-82
2022/12/09 10:53:04;;;;;;;41.70;22.02;;;3.50;99.90;;;;;;5008179;28;20048;-82
2022/12/09 10:55:37;;;;;;;34.10;19.85;;;3.50;99.90;;;;;;5042708;28;20044;-81
2022/12/09 10:58:10;;;;;;;35.05;21.60;;;3.50;99.90;;;;;;5035760;28;20884;-81
2022/12/09 11:00:37;;;;;;;39.45;21.23;;;3.60;99.90;;;;;;5037911;28;20034;-81
2022/12/09 11:03:21;;;;;;;44.83;25.10;;;3.60;99.90;;;;;;5027986;28;20840;-81
2022/12/09 11:05:59;;;;;;;70.40;42.28;;;3.60;99.90;;;;;;5026743;28;20034;-82
2022/12/09 11:08:26;;;;;;;46.25;27.23;;;3.70;99.90;;;;;;5036698;28;20057;-80
2022/12/09 11:10:52;;;;;;;36.70;21.67;;;3.70;99.90;;;;;;5009599;28;20044;-79
2022/12/09 11:13:26;;;;;;;39.80;24.47;;;3.70;99.90;;;;;;5041708;28;20044;-82
2022/12/09 11:15:58;;;;;;;39.83;22.52;;;3.70;99.90;;;;;;5009014;28;20045;-79
2022/12/09 11:18:30;;;;;;;36.47;21.00;;;3.80;99.90;;;;;;5033895;28;20049;-80
2022/12/09 11:20:58;;;;;;;;;;;3.80;99.90;;;;;;4998412;28;20493;-79
2022/12/09 11:23:25;;;;;;;33.78;20.65;;;3.90;99.90;;;;;;5017996;28;19912;-79
2022/12/09 11:25:56;;;;;;;34.15;19.88;;;3.90;99.90;;;;;;5025828;28;20574;-79
2022/12/09 11:28:39;;;;;;;38.63;22.70;;;3.90;99.90;;;;;;5009393;28;20041;-79
2022/12/09 11:31:19;;;;;;;36.03;21.33;;;3.90;99.90;;;;;;5031146;28;20060;-80
2022/12/09 11:33:58;;;;;;;34.10;20.48;;;3.90;99.90;;;;;;5021265;28;20510;-80
2022/12/09 11:36:34;;;;;;;31.73;18.75;;;3.90;99.90;;;;;;5023818;28;20045;-80
2022/12/09 11:39:27;;;;;;;35.80;21.02;;;3.90;99.90;;;;;;5023786;28;20052;-81
2022/12/09 11:42:14;;;;;;;34.67;19.55;;;3.90;99.90;;;;;;5041058;28;20029;-80
2022/12/09 11:44:48;;;;;;;35.53;20.63;;;3.90;99.90;;;;;;5029177;28;20045;-81
2022/12/09 11:47:29;;;;;;;34.75;19.50;;;3.90;99.90;;;;;;5027225;28;20515;-80
2022/12/09 11:50:06;;;;;;;36.78;21.10;;;3.90;99.90;;;;;;5003580;28;20418;-80
2022/12/09 11:52:32;;;;;;;33.80;20.23;;;3.90;99.90;;;;;;5027357;28;20033;-76
2022/12/09 11:55:08;;;;;;;38.13;22.60;;;3.80;99.90;;;;;;5026316;28;20029;-80
2022/12/09 11:57:41;;;;;;;37.72;23.08;;;3.80;99.90;;;;;;5028180;28;20076;-80
2022/12/09 12:00:23;;;;;;;33.17;18.80;;;3.80;99.90;;;;;;5045286;28;20040;-78
2022/12/09 12:03:27;;;;;;;39.10;21.15;;;3.80;99.90;;;;;;5023644;28;20033;-81
2022/12/09 12:05:54;;;;;;;35.42;20.63;;;3.80;99.90;;;;;;5010972;28;20046;-79
2022/12/09 12:09:04;;;;;;;34.00;19.13;;;3.80;99.90;;;;;;5030552;28;20057;-79
2022/12/09 12:11:39;;;;;;;33.88;18.85;;;3.80;99.90;;;;;;4998726;28;20045;-81
2022/12/09 12:14:36;;;;;;;36.88;20.30;;;3.80;99.90;;;;;;5027982;28;20506;-79
2022/12/09 12:17:15;;;;;;;33.33;19.17;;;3.80;99.90;;;;;;5017226;28;20062;-78
2022/12/09 12:19:47;;;;;;;35.75;20.25;;;3.80;99.90;;;;;;5028797;28;20041;-79
2022/12/09 12:22:22;;;;;;;36.90;21.10;;;3.90;99.90;;;;;;5026892;28;20618;-79
2022/12/09 12:25:19;;;;;;;34.78;18.98;;;3.90;99.90;;;;;;5028103;28;20045;-78
2022/12/09 12:28:10;;;;;;;32.58;18.23;;;3.90;99.90;;;;;;5009366;28;20049;-78
2022/12/09 12:31:17;;;;;;;28.67;17.63;;;4.00;99.90;;;;;;5013916;28;20549;-79
2022/12/09 12:34:02;;;;;;;36.47;20.52;;;4.00;99.90;;;;;;5027140;28;20068;-78
2022/12/09 12:36:41;;;;;;;32.55;20.38;;;4.10;99.90;;;;;;5027286;28;20047;-79
2022/12/09 12:39:28;;;;;;;32.22;20.25;;;4.10;99.90;;;;;;5026633;28;20049;-77
2022/12/09 12:42:09;;;;;;;30.90;18.42;;;4.20;99.90;;;;;;5039345;28;20045;-78
2022/12/09 12:47:38;;;;;;;24.65;15.60;;;4.30;99.90;;;;;;5024270;28;20049;-78
2022/12/09 12:50:04;;;;;;;26.73;16.52;;;4.20;99.90;;;;;;5012146;28;20054;-78
2022/12/09 12:52:40;;;;;;;28.17;17.02;;;4.20;99.90;;;;;;5009750;28;20060;-79
2022/12/09 12:55:33;;;;;;;25.60;16.10;;;4.10;99.90;;;;;;5020611;28;20048;-78
2022/12/09 12:58:15;;;;;;;24.92;17.10;;;4.10;99.90;;;;;;5024003;28;20479;-78
2022/12/09 13:01:11;;;;;;;33.90;18.83;;;4.10;99.90;;;;;;5021138;28;20803;-78
2022/12/09 13:03:49;;;;;;;25.50;15.65;;;4.00;99.90;;;;;;5026125;28;20037;-79
2022/12/09 13:06:21;;;;;;;21.17;14.10;;;4.10;99.90;;;;;;5009868;28;20042;-80